Time;durP1;ratioP1;P1;durP2;ratioP2;P2;SDS_P1;SDS_P2;PMS_P1;PMS_P2;Temp;Humidity;BMP_temperature;BMP_pressure;BME280_temperature;BME280_humidity;BME280_pressure;Samples;Min_cycle;Max_cycle;Signal;HPM_P1;HPM_P2
2023/04/11 00:00:17;;;;;;;9.73;7.63;;;9.60;90.60;;;;;;4995277;28;20707;-92
2023/04/11 00:02:43;;;;;;;9.00;6.47;;;9.60;90.70;;;;;;4993853;28;20198;-91
2023/04/11 00:05:09;;;;;;;7.90;7.03;;;9.60;90.60;;;;;;4996781;28;20643;-92
2023/04/11 00:07:35;;;;;;;8.93;7.73;;;9.60;90.70;;;;;;4998682;28;20174;-93
2023/04/11 00:10:01;;;;;;;8.27;6.90;;;9.60;90.80;;;;;;4996045;28;20537;-93
2023/04/11 00:12:26;;;;;;;8.73;7.57;;;9.50;91.00;;;;;;4998142;28;20206;-92
2023/04/11 00:14:52;;;;;;;7.23;6.53;;;9.50;91.00;;;;;;4993377;28;20181;-91
2023/04/11 00:17:19;;;;;;;8.40;7.30;;;9.60;91.00;;;;;;4992610;28;20174;-91
2023/04/11 00:19:45;;;;;;;7.87;7.07;;;9.50;91.10;;;;;;4993906;28;20505;-92
2023/04/11 00:22:12;;;;;;;7.67;6.87;;;9.50;91.10;;;;;;4993582;28;20196;-92
2023/04/11 00:24:38;;;;;;;9.13;7.30;;;9.50;91.10;;;;;;4993386;28;20395;-93
2023/04/11 00:27:04;;;;;;;8.10;7.30;;;9.50;91.20;;;;;;4993367;28;20175;-92
2023/04/11 00:29:32;;;;;;;9.50;7.60;;;9.50;91.30;;;;;;4993194;28;20634;-90
2023/04/11 00:31:58;;;;;;;9.17;7.67;;;9.50;91.30;;;;;;4994062;28;20198;-92
2023/04/11 00:34:24;;;;;;;7.63;6.93;;;9.50;91.30;;;;;;4993525;28;20225;-91
2023/04/11 00:36:50;;;;;;;9.80;8.73;;;9.40;91.40;;;;;;4992754;28;20269;-91
2023/04/11 00:39:34;;;;;;;9.57;7.47;;;9.50;91.60;;;;;;4996814;28;20184;-93
2023/04/11 00:42:07;;;;;;;7.97;7.17;;;9.50;91.60;;;;;;4997618;28;20210;-92
2023/04/11 00:44:34;;;;;;;7.87;6.17;;;9.40;92.00;;;;;;4993531;28;20178;-93
2023/04/11 00:47:01;;;;;;;7.20;6.50;;;9.30;92.10;;;;;;5006443;28;20190;-93
2023/04/11 00:49:28;;;;;;;10.67;7.27;;;9.40;92.00;;;;;;5006691;28;20175;-93
2023/04/11 00:52:23;;;;;;;7.00;6.33;;;9.30;92.10;;;;;;5012094;28;20202;-92
2023/04/11 00:54:49;;;;;;;7.67;6.87;;;9.30;92.10;;;;;;5009328;28;20185;-93
2023/04/11 00:57:15;;;;;;;7.47;6.30;;;9.30;92.20;;;;;;5003078;28;20178;-92
2023/04/11 00:59:41;;;;;;;9.27;7.00;;;9.30;92.30;;;;;;5001385;28;20178;-93
2023/04/11 01:02:08;;;;;;;7.37;6.67;;;9.30;92.30;;;;;;5000126;28;20202;-92
2023/04/11 01:04:37;;;;;;;7.63;6.70;;;9.30;92.40;;;;;;4996784;28;20227;-92
2023/04/11 01:07:06;;;;;;;7.20;6.17;;;9.30;92.40;;;;;;4997548;28;20202;-92
2023/04/11 01:09:34;;;;;;;6.77;6.23;;;9.30;92.30;;;;;;4995992;28;20224;-92
2023/04/11 01:12:01;;;;;;;6.83;6.23;;;9.30;92.40;;;;;;4997035;28;20198;-92
2023/04/11 01:14:28;;;;;;;7.83;7.03;;;9.30;92.20;;;;;;4997021;28;20166;-92
2023/04/11 01:16:56;;;;;;;7.30;6.60;;;9.30;92.10;;;;;;4997139;28;20174;-92
2023/04/11 01:19:25;;;;;;;7.57;6.60;;;9.30;92.10;;;;;;4997249;28;20257;-92
2023/04/11 01:21:52;;;;;;;7.23;6.50;;;9.20;92.00;;;;;;4997319;28;20290;-93
2023/04/11 01:24:18;;;;;;;8.77;7.43;;;9.20;92.00;;;;;;4998579;28;20170;-92
2023/04/11 01:26:44;;;;;;;7.23;6.43;;;9.20;91.90;;;;;;4998714;28;20542;-92
2023/04/11 01:29:10;;;;;;;8.20;7.40;;;9.20;91.70;;;;;;4997441;28;20173;-92
2023/04/11 01:31:36;;;;;;;8.47;7.13;;;9.20;91.60;;;;;;4996930;28;20201;-91
2023/04/11 01:34:03;;;;;;;8.97;6.27;;;9.20;91.50;;;;;;4995986;28;20186;-91
2023/04/11 01:36:30;;;;;;;7.47;6.77;;;9.20;91.50;;;;;;4996632;28;20193;-92
2023/04/11 01:38:56;;;;;;;9.50;7.13;;;9.20;91.40;;;;;;4996909;28;20178;-92
2023/04/11 01:41:23;;;;;;;8.67;6.27;;;9.20;91.50;;;;;;4995801;28;20703;-92
2023/04/11 01:43:49;;;;;;;7.20;6.60;;;9.10;91.40;;;;;;4995047;28;20284;-92
2023/04/11 01:46:16;;;;;;;9.70;7.13;;;9.10;91.20;;;;;;4996799;28;20253;-91
2023/04/11 01:48:44;;;;;;;7.07;6.30;;;9.10;91.10;;;;;;4995568;28;20233;-93
2023/04/11 01:51:10;;;;;;;7.10;6.50;;;9.00;91.20;;;;;;4995400;28;20205;-92
2023/04/11 01:53:35;;;;;;;8.53;6.10;;;8.90;91.20;;;;;;4995761;28;20197;-92
2023/04/11 01:56:01;;;;;;;7.10;6.40;;;8.90;91.30;;;;;;4994842;28;20285;-91
2023/04/11 01:58:27;;;;;;;6.30;5.80;;;9.00;91.20;;;;;;4995055;28;20185;-92
2023/04/11 02:00:52;;;;;;;10.80;7.00;;;9.00;91.30;;;;;;4994755;28;20198;-91
2023/04/11 02:03:19;;;;;;;6.87;6.13;;;9.00;91.30;;;;;;4994676;28;20284;-92
2023/04/11 02:05:45;;;;;;;7.87;6.30;;;9.00;91.10;;;;;;4994691;28;20182;-92
2023/04/11 02:08:11;;;;;;;6.70;6.03;;;9.00;91.00;;;;;;4994828;28;20227;-92
2023/04/11 02:10:36;;;;;;;7.30;6.63;;;9.00;91.00;;;;;;4994785;28;20247;-92
2023/04/11 02:13:02;;;;;;;6.30;5.80;;;9.00;91.00;;;;;;4994449;28;20688;-91
2023/04/11 02:15:28;;;;;;;7.07;6.47;;;9.00;90.70;;;;;;4994768;28;20186;-91
2023/04/11 02:17:53;;;;;;;7.87;5.83;;;9.00;90.80;;;;;;4995056;28;20189;-92
2023/04/11 02:20:20;;;;;;;6.27;5.33;;;9.00;90.90;;;;;;4994612;28;20202;-91
2023/04/11 02:22:46;;;;;;;8.57;6.50;;;9.00;91.00;;;;;;4993653;28;20198;-92
2023/04/11 02:25:12;;;;;;;6.73;6.13;;;9.00;90.90;;;;;;4994133;28;20181;-91
2023/04/11 02:27:37;;;;;;;6.73;6.07;;;9.00;90.80;;;;;;4995802;28;20178;-92
2023/04/11 02:30:04;;;;;;;7.00;6.30;;;9.00;90.80;;;;;;4994237;28;20185;-91
2023/04/11 02:32:33;;;;;;;7.70;6.90;;;9.10;90.80;;;;;;4995362;28;20571;-91
2023/04/11 02:34:58;;;;;;;7.77;6.97;;;9.10;90.80;;;;;;4994437;28;20248;-91
2023/04/11 02:37:25;;;;;;;9.80;7.77;;;9.20;90.80;;;;;;4994229;28;20189;-91
2023/04/11 02:39:50;;;;;;;8.33;7.43;;;9.20;90.70;;;;;;4993995;28;20178;-92
2023/04/11 02:42:16;;;;;;;8.27;7.30;;;9.20;90.50;;;;;;4994001;28;20209;-91
2023/04/11 02:44:41;;;;;;;9.73;7.93;;;9.20;90.50;;;;;;4994126;28;20201;-91
2023/04/11 02:47:07;;;;;;;9.83;7.83;;;9.20;90.40;;;;;;4993831;28;20687;-92
2023/04/11 02:49:33;;;;;;;7.43;6.70;;;9.30;90.30;;;;;;4994281;28;20190;-92
2023/04/11 02:51:58;;;;;;;5.90;5.50;;;9.20;89.20;;;;;;4994645;28;20205;-92
2023/04/11 02:54:24;;;;;;;5.60;5.30;;;8.70;87.40;;;;;;4995008;28;20185;-92
2023/04/11 02:56:51;;;;;;;5.90;5.50;;;8.60;86.80;;;;;;4996441;28;20586;-91
2023/04/11 02:59:17;;;;;;;7.07;5.57;;;8.40;87.40;;;;;;4996758;28;20278;-93
2023/04/11 03:01:43;;;;;;;7.03;4.97;;;8.40;87.90;;;;;;4997836;28;20723;-93
2023/04/11 03:04:09;;;;;;;5.40;5.10;;;8.30;88.20;;;;;;4994385;28;20185;-91
2023/04/11 03:06:35;;;;;;;6.00;5.40;;;8.20;88.70;;;;;;4994673;28;20589;-92
2023/04/11 03:09:00;;;;;;;5.00;4.70;;;8.20;88.90;;;;;;4994449;28;20601;-92
2023/04/11 03:11:26;;;;;;;5.33;4.60;;;8.10;88.80;;;;;;4994669;28;20671;-92
2023/04/11 03:13:51;;;;;;;4.90;4.60;;;8.00;88.80;;;;;;4993484;28;20360;-91
2023/04/11 03:16:18;;;;;;;5.30;4.80;;;8.00;88.70;;;;;;4993466;28;20182;-92
2023/04/11 03:18:44;;;;;;;5.10;4.70;;;8.00;88.80;;;;;;4993228;28;20182;-92
2023/04/11 03:21:10;;;;;;;5.07;4.70;;;8.00;88.90;;;;;;4993241;28;20213;-91
2023/04/11 03:23:37;;;;;;;5.83;4.90;;;7.90;89.10;;;;;;4993189;28;20664;-92
2023/04/11 03:26:04;;;;;;;5.10;4.70;;;8.00;89.10;;;;;;4993231;28;20303;-92
2023/04/11 03:28:30;;;;;;;5.57;5.07;;;8.00;89.10;;;;;;4993375;28;20213;-93
2023/04/11 03:30:56;;;;;;;5.10;4.60;;;7.90;89.20;;;;;;4993149;28;20182;-91
2023/04/11 03:33:21;;;;;;;4.90;4.50;;;7.90;89.60;;;;;;4992590;28;20208;-92
2023/04/11 03:35:47;;;;;;;4.30;4.00;;;7.80;89.90;;;;;;4993069;28;20178;-91
2023/04/11 03:38:12;;;;;;;4.40;4.10;;;7.80;90.30;;;;;;4993211;28;20655;-91
2023/04/11 03:40:38;;;;;;;6.07;4.30;;;7.80;89.80;;;;;;4993074;28;20773;-91
2023/04/11 03:43:03;;;;;;;4.63;3.90;;;7.80;89.50;;;;;;4994156;28;20198;-91
2023/04/11 03:45:29;;;;;;;4.00;3.80;;;7.80;89.70;;;;;;4992981;28;20260;-91
2023/04/11 03:47:54;;;;;;;5.50;3.83;;;7.80;89.70;;;;;;4992976;28;20190;-91
2023/04/11 03:50:20;;;;;;;4.30;4.00;;;7.70;89.90;;;;;;4993017;28;20189;-91
2023/04/11 03:52:46;;;;;;;4.43;4.03;;;7.70;90.00;;;;;;4992806;28;20230;-91
2023/04/11 03:55:11;;;;;;;4.33;3.90;;;7.60;90.30;;;;;;4992708;28;20184;-91
2023/04/11 03:57:37;;;;;;;4.50;4.10;;;7.60;90.10;;;;;;4992824;28;20707;-92
2023/04/11 04:00:04;;;;;;;4.83;3.80;;;7.50;89.90;;;;;;4992623;28;20213;-91
2023/04/11 04:02:30;;;;;;;4.17;3.87;;;7.50;90.50;;;;;;4992638;28;20650;-91
2023/04/11 04:04:59;;;;;;;4.57;4.10;;;7.50;90.90;;;;;;4992695;28;20217;-91
2023/04/11 04:07:25;;;;;;;5.07;4.03;;;7.50;90.70;;;;;;4993081;28;20182;-91
2023/04/11 04:09:51;;;;;;;4.00;3.70;;;7.50;91.00;;;;;;4993613;28;20587;-91
2023/04/11 04:12:17;;;;;;;5.17;4.77;;;7.40;91.00;;;;;;4992353;28;20676;-92
2023/04/11 04:14:43;;;;;;;4.60;4.30;;;7.40;91.10;;;;;;4992614;28;20178;-91
2023/04/11 04:17:09;;;;;;;4.40;4.00;;;7.30;91.10;;;;;;4992534;28;20276;-91
2023/04/11 04:19:35;;;;;;;4.40;4.00;;;7.40;91.20;;;;;;4993202;28;20273;-91
2023/04/11 04:22:00;;;;;;;4.43;3.90;;;7.30;91.20;;;;;;4992439;28;20217;-91
2023/04/11 04:24:26;;;;;;;4.53;4.17;;;7.30;91.30;;;;;;4992639;28;20182;-91
2023/04/11 04:26:52;;;;;;;4.30;4.00;;;7.30;91.20;;;;;;4992815;28;20189;-91
2023/04/11 04:29:18;;;;;;;4.80;4.40;;;7.30;90.90;;;;;;4993296;28;20182;-92
2023/04/11 04:31:49;;;;;;;6.47;3.93;;;7.30;90.60;;;;;;4992411;28;20560;-91
2023/04/11 04:34:20;;;;;;;5.60;4.83;;;7.30;90.50;;;;;;4992495;28;20258;-91
2023/04/11 04:36:48;;;;;;;5.40;4.17;;;7.30;90.60;;;;;;4992519;28;20256;-92
2023/04/11 04:39:17;;;;;;;5.83;4.97;;;7.30;90.60;;;;;;4993152;28;20178;-91
2023/04/11 04:41:57;;;;;;;5.17;4.67;;;7.30;90.70;;;;;;4992252;28;20213;-92
2023/04/11 04:44:26;;;;;;;5.10;4.70;;;7.20;90.50;;;;;;4992836;28;20209;-92
2023/04/11 04:46:55;;;;;;;6.60;5.40;;;7.30;90.50;;;;;;4996066;28;20174;-91
2023/04/11 04:49:21;;;;;;;5.70;5.13;;;7.30;90.50;;;;;;4996436;28;20644;-91
2023/04/11 04:51:46;;;;;;;8.43;5.07;;;7.30;90.40;;;;;;4995939;28;20178;-91
2023/04/11 04:54:13;;;;;;;7.07;4.80;;;7.30;90.40;;;;;;4996100;28;20268;-91
2023/04/11 04:56:38;;;;;;;9.23;5.70;;;7.30;90.50;;;;;;4996230;28;20209;-92
2023/04/11 04:59:04;;;;;;;7.43;6.73;;;7.30;90.10;;;;;;4996636;28;20182;-90
2023/04/11 05:01:31;;;;;;;13.73;6.17;;;7.30;90.00;;;;;;4995924;28;20213;-91
2023/04/11 05:03:57;;;;;;;10.43;6.37;;;7.30;90.00;;;;;;4995705;28;20200;-91
2023/04/11 05:06:26;;;;;;;8.97;5.57;;;7.30;90.00;;;;;;4995745;28;20174;-91
2023/04/11 05:08:52;;;;;;;8.10;5.13;;;7.30;89.90;;;;;;4996814;28;20598;-91
2023/04/11 05:11:18;;;;;;;8.63;6.10;;;7.30;89.90;;;;;;4995595;28;20208;-91
2023/04/11 05:13:43;;;;;;;10.67;5.80;;;7.30;89.90;;;;;;4995391;28;20225;-91
2023/04/11 05:16:09;;;;;;;7.73;5.70;;;7.30;90.00;;;;;;4995547;28;20276;-91
2023/04/11 05:18:35;;;;;;;10.70;5.53;;;7.30;89.90;;;;;;4995889;28;20178;-91
2023/04/11 05:21:01;;;;;;;9.27;5.77;;;7.30;89.90;;;;;;4995366;28;20201;-91
2023/04/11 05:23:26;;;;;;;11.43;7.27;;;7.30;89.90;;;;;;4995416;28;20198;-91
2023/04/11 05:25:52;;;;;;;7.20;5.53;;;7.20;89.80;;;;;;4995237;28;20229;-90
2023/04/11 05:28:17;;;;;;;6.83;5.37;;;7.30;90.00;;;;;;4995429;28;20182;-91
2023/04/11 05:30:43;;;;;;;9.63;6.27;;;7.30;89.90;;;;;;4995351;28;20656;-91
2023/04/11 05:33:08;;;;;;;5.50;4.93;;;7.30;90.00;;;;;;4995391;28;20252;-91
2023/04/11 05:35:34;;;;;;;12.17;6.50;;;7.30;90.20;;;;;;4995106;28;20181;-91
2023/04/11 05:37:59;;;;;;;8.27;6.03;;;7.30;90.00;;;;;;4994999;28;20186;-91
2023/04/11 05:40:25;;;;;;;9.53;6.70;;;7.30;90.20;;;;;;4995129;28;20213;-91
2023/04/11 05:42:50;;;;;;;15.57;6.60;;;7.30;90.10;;;;;;4994997;28;20190;-91
2023/04/11 05:45:16;;;;;;;11.83;5.57;;;7.30;90.10;;;;;;4994991;28;20178;-91
2023/04/11 05:47:41;;;;;;;10.40;5.87;;;7.30;89.90;;;;;;4995236;28;20201;-91
2023/04/11 05:50:09;;;;;;;6.30;5.70;;;7.30;90.00;;;;;;4994730;28;20182;-91
2023/04/11 05:52:34;;;;;;;7.47;6.10;;;7.30;89.90;;;;;;4994651;28;20571;-91
2023/04/11 05:55:03;;;;;;;7.63;5.83;;;7.30;90.10;;;;;;4994879;28;20582;-91
2023/04/11 05:57:28;;;;;;;6.30;5.70;;;7.30;90.00;;;;;;4993762;28;20210;-91
2023/04/11 05:59:54;;;;;;;9.30;6.30;;;7.40;90.20;;;;;;4994558;28;20178;-90
2023/04/11 06:02:20;;;;;;;10.83;6.07;;;7.30;89.90;;;;;;4994552;28;20193;-90
2023/04/11 06:04:45;;;;;;;7.60;6.33;;;7.40;89.90;;;;;;4995801;28;20170;-89
2023/04/11 06:07:11;;;;;;;9.30;6.40;;;7.40;89.90;;;;;;4994507;28;20170;-90
2023/04/11 06:09:38;;;;;;;8.77;6.47;;;7.50;90.00;;;;;;4994598;28;20174;-90
2023/04/11 06:12:03;;;;;;;7.13;5.97;;;7.50;90.00;;;;;;4994320;28;20211;-89
2023/04/11 06:14:29;;;;;;;10.60;6.83;;;7.50;89.90;;;;;;4995519;28;20182;-90
2023/04/11 06:16:54;;;;;;;9.90;5.87;;;7.50;90.20;;;;;;4994389;28;20260;-89
2023/04/11 06:19:20;;;;;;;9.53;6.07;;;7.60;90.30;;;;;;4995499;28;20640;-90
2023/04/11 06:21:45;;;;;;;8.40;6.17;;;7.60;90.10;;;;;;4994111;28;20204;-90
2023/04/11 06:24:11;;;;;;;9.83;6.50;;;7.80;90.20;;;;;;4995560;28;20602;-89
2023/04/11 06:26:37;;;;;;;7.63;6.53;;;7.80;90.20;;;;;;4995388;28;20182;-90
2023/04/11 06:29:06;;;;;;;7.77;6.10;;;7.80;90.10;;;;;;4995343;28;20174;-90
2023/04/11 06:31:32;;;;;;;12.17;6.47;;;7.80;90.00;;;;;;4994227;28;20190;-90
2023/04/11 06:34:00;;;;;;;11.87;6.07;;;7.80;90.20;;;;;;4994333;28;20213;-90
2023/04/11 06:36:26;;;;;;;6.60;6.00;;;7.60;90.30;;;;;;4994151;28;20182;-90
2023/04/11 06:38:51;;;;;;;7.43;5.50;;;7.40;90.10;;;;;;4994069;28;20205;-91
2023/04/11 06:41:17;;;;;;;7.63;5.60;;;7.30;90.50;;;;;;4995340;28;20208;-91
2023/04/11 06:43:42;;;;;;;10.30;5.93;;;7.30;90.60;;;;;;4995171;28;20688;-91
2023/04/11 06:46:08;;;;;;;6.83;5.80;;;7.20;90.60;;;;;;4994918;28;20214;-91
2023/04/11 06:48:34;;;;;;;9.67;5.87;;;7.20;90.80;;;;;;4994047;28;20203;-91
2023/04/11 06:50:59;;;;;;;6.43;5.73;;;7.20;90.80;;;;;;4995136;28;20690;-90
2023/04/11 06:53:25;;;;;;;7.07;5.50;;;7.10;90.80;;;;;;4993874;28;20229;-91
2023/04/11 06:55:50;;;;;;;6.50;5.90;;;7.10;91.00;;;;;;4994222;28;20667;-91
2023/04/11 06:58:16;;;;;;;6.30;5.70;;;7.30;90.90;;;;;;4995316;28;20189;-91
2023/04/11 07:00:42;;;;;;;6.23;5.77;;;7.20;91.10;;;;;;4994412;28;20214;-90
2023/04/11 07:03:07;;;;;;;6.33;5.83;;;7.20;91.00;;;;;;4994874;28;20218;-91
2023/04/11 07:05:36;;;;;;;5.93;5.43;;;7.10;90.80;;;;;;4993714;28;20640;-91
2023/04/11 07:08:01;;;;;;;6.10;5.60;;;7.10;90.90;;;;;;4994717;28;20174;-91
2023/04/11 07:10:27;;;;;;;6.17;5.63;;;7.10;90.90;;;;;;4993839;28;20285;-91
2023/04/11 07:12:53;;;;;;;8.50;6.23;;;7.10;91.00;;;;;;4994854;28;20672;-90
2023/04/11 07:15:18;;;;;;;9.13;6.03;;;7.00;91.00;;;;;;4993872;28;20193;-91
2023/04/11 07:17:46;;;;;;;6.20;5.80;;;7.00;91.00;;;;;;4995337;28;20260;-91
2023/04/11 07:20:11;;;;;;;6.00;5.70;;;7.10;91.40;;;;;;4993880;28;20301;-91
2023/04/11 07:22:41;;;;;;;10.20;5.70;;;7.00;91.40;;;;;;4993348;28;20680;-91
2023/04/11 07:25:07;;;;;;;10.50;5.73;;;6.90;91.40;;;;;;4993419;28;20209;-90
2023/04/11 07:27:34;;;;;;;6.20;5.70;;;6.90;91.60;;;;;;4994945;28;20181;-89
2023/04/11 07:29:59;;;;;;;6.23;5.63;;;6.90;91.70;;;;;;4993397;28;20175;-90
2023/04/11 07:32:25;;;;;;;6.47;5.83;;;6.90;91.50;;;;;;4994459;28;20195;-91
2023/04/11 07:34:51;;;;;;;6.13;5.63;;;6.80;91.60;;;;;;4993467;28;20244;-91
2023/04/11 07:37:16;;;;;;;6.03;5.63;;;6.90;91.80;;;;;;4995272;28;20650;-91
2023/04/11 07:39:43;;;;;;;6.83;6.23;;;6.90;91.90;;;;;;4993587;28;20181;-91
2023/04/11 07:42:09;;;;;;;6.13;5.63;;;7.00;92.10;;;;;;4993133;28;20213;-89
2023/04/11 07:44:35;;;;;;;6.73;6.13;;;7.10;92.10;;;;;;4994142;28;20301;-90
2023/04/11 07:47:00;;;;;;;5.87;5.40;;;7.00;92.10;;;;;;4992874;28;20232;-91
2023/04/11 07:49:26;;;;;;;6.20;5.80;;;7.00;92.40;;;;;;4992997;28;20240;-91
2023/04/11 07:51:51;;;;;;;6.67;6.07;;;7.00;92.30;;;;;;4993869;28;20185;-91
2023/04/11 07:54:17;;;;;;;7.43;6.33;;;7.00;92.40;;;;;;4993754;28;20181;-92
2023/04/11 07:56:42;;;;;;;7.57;6.33;;;7.00;92.50;;;;;;4994600;28;20185;-91
2023/04/11 07:59:08;;;;;;;6.93;6.40;;;7.00;92.50;;;;;;4996596;28;20224;-92
2023/04/11 08:01:34;;;;;;;7.37;6.67;;;7.00;92.60;;;;;;4994295;28;20225;-91
2023/04/11 08:04:00;;;;;;;7.47;6.87;;;7.10;92.60;;;;;;4995326;28;20755;-91
2023/04/11 08:06:27;;;;;;;7.33;6.73;;;7.20;92.50;;;;;;4994164;28;20193;-91
2023/04/11 08:08:53;;;;;;;6.83;6.30;;;7.10;92.40;;;;;;4994551;28;20655;-91
2023/04/11 08:11:18;;;;;;;7.67;7.07;;;7.20;92.30;;;;;;4993026;28;20268;-90
2023/04/11 08:13:44;;;;;;;7.70;7.20;;;7.20;92.50;;;;;;4993088;28;20248;-90
2023/04/11 08:16:13;;;;;;;8.00;7.20;;;7.20;92.40;;;;;;4994304;28;20170;-91
2023/04/11 08:18:40;;;;;;;7.90;6.80;;;7.20;92.40;;;;;;4994186;28;20186;-90
2023/04/11 08:21:08;;;;;;;8.00;7.20;;;7.30;92.80;;;;;;4995774;28;20201;-90
2023/04/11 08:23:33;;;;;;;8.07;7.30;;;7.30;92.80;;;;;;4997714;28;20198;-90
2023/04/11 08:25:59;;;;;;;7.70;7.00;;;7.40;92.80;;;;;;4996440;28;20190;-90
2023/04/11 08:28:25;;;;;;;8.20;7.50;;;7.40;92.60;;;;;;4997679;28;20173;-90
2023/04/11 08:30:54;;;;;;;7.10;6.53;;;7.40;92.50;;;;;;4997589;28;20261;-90
2023/04/11 08:33:22;;;;;;;7.37;6.87;;;7.60;92.70;;;;;;4997474;28;20198;-90
2023/04/11 08:35:48;;;;;;;8.53;7.80;;;7.50;92.60;;;;;;4997582;28;20640;-90
2023/04/11 08:38:14;;;;;;;9.47;8.50;;;7.70;92.90;;;;;;4997339;28;20220;-90
2023/04/11 08:40:39;;;;;;;11.80;8.13;;;7.70;92.90;;;;;;4996082;28;20289;-90
2023/04/11 08:43:10;;;;;;;11.37;8.67;;;7.80;93.00;;;;;;4996428;28;20194;-90
2023/04/11 08:45:39;;;;;;;10.47;9.47;;;7.80;93.00;;;;;;4996223;28;20177;-90
2023/04/11 08:48:06;;;;;;;10.27;9.23;;;8.00;93.10;;;;;;4996113;28;20201;-90
2023/04/11 08:50:35;;;;;;;17.43;10.90;;;8.00;93.00;;;;;;4997188;28;20261;-90
2023/04/11 08:53:02;;;;;;;9.10;8.40;;;8.20;93.20;;;;;;4995827;28;20193;-90
2023/04/11 08:55:27;;;;;;;10.70;9.83;;;8.10;92.80;;;;;;4997381;28;20538;-90
2023/04/11 08:57:57;;;;;;;11.17;10.13;;;8.00;92.50;;;;;;4997218;28;20174;-90
2023/04/11 09:00:24;;;;;;;11.10;10.00;;;8.30;92.70;;;;;;4995782;28;20274;-91
2023/04/11 09:02:55;;;;;;;10.27;9.50;;;8.30;92.80;;;;;;4996929;28;20671;-90
2023/04/11 09:05:34;;;;;;;11.77;10.50;;;8.30;92.40;;;;;;4995869;28;20173;-89
2023/04/11 09:08:07;;;;;;;12.03;9.73;;;8.30;92.30;;;;;;4996876;28;20159;-90
2023/04/11 09:10:34;;;;;;;10.43;9.63;;;8.40;91.90;;;;;;4996978;28;20170;-90
2023/04/11 09:13:01;;;;;;;10.40;9.40;;;8.60;91.70;;;;;;4996583;28;20214;-89
2023/04/11 09:15:28;;;;;;;9.47;8.73;;;8.50;90.30;;;;;;4995404;28;20210;-90
2023/04/11 09:17:55;;;;;;;10.57;9.53;;;8.60;90.50;;;;;;4995956;28;20273;-90
2023/04/11 09:20:28;;;;;;;10.07;9.10;;;8.60;90.50;;;;;;4995323;28;20205;-89
2023/04/11 09:22:55;;;;;;;9.90;9.10;;;8.70;90.50;;;;;;4995344;28;20201;-90
2023/04/11 09:25:22;;;;;;;9.90;8.90;;;8.60;89.60;;;;;;4996692;28;20205;-90
2023/04/11 09:27:49;;;;;;;10.97;9.80;;;8.60;89.30;;;;;;4996524;28;20242;-90
2023/04/11 09:30:25;;;;;;;10.50;9.23;;;8.60;89.10;;;;;;4995054;28;20182;-90
2023/04/11 09:32:52;;;;;;;10.43;8.53;;;8.50;89.00;;;;;;4996288;28;20277;-89
2023/04/11 09:35:23;;;;;;;10.20;9.30;;;8.60;89.40;;;;;;4996448;28;20185;-90
2023/04/11 09:37:53;;;;;;;11.20;10.07;;;8.50;89.20;;;;;;4996347;28;20188;-90
2023/04/11 09:40:22;;;;;;;9.40;8.70;;;8.50;89.10;;;;;;4996166;28;20317;-90
2023/04/11 09:42:55;;;;;;;8.87;7.90;;;8.50;89.30;;;;;;4995001;28;20205;-91
2023/04/11 09:45:22;;;;;;;8.07;7.27;;;8.50;89.60;;;;;;4995582;28;20170;-91
2023/04/11 09:47:50;;;;;;;8.87;8.03;;;8.40;88.80;;;;;;4996593;28;20174;-91
2023/04/11 09:50:16;;;;;;;13.07;8.50;;;8.60;89.20;;;;;;4996341;28;20713;-90
2023/04/11 09:52:44;;;;;;;9.87;8.07;;;8.80;89.30;;;;;;4994976;28;20200;-90
2023/04/11 09:55:11;;;;;;;7.00;6.50;;;8.90;89.00;;;;;;4996129;28;20173;-90
2023/04/11 09:57:44;;;;;;;8.23;7.33;;;9.00;88.80;;;;;;4996222;28;20214;-92
2023/04/11 10:00:15;;;;;;;6.60;6.13;;;9.20;88.20;;;;;;4995488;28;20177;-90
2023/04/11 10:02:40;;;;;;;7.27;6.73;;;9.20;87.90;;;;;;4996487;28;20591;-91
2023/04/11 10:05:07;;;;;;;7.60;7.10;;;9.30;87.70;;;;;;4994758;28;20169;-90
2023/04/11 10:07:35;;;;;;;8.00;7.30;;;9.00;86.90;;;;;;4994588;28;20178;-92
2023/04/11 10:10:02;;;;;;;7.00;6.50;;;8.80;88.60;;;;;;4994624;28;20209;-91
2023/04/11 10:12:32;;;;;;;7.03;6.50;;;8.80;88.80;;;;;;4995099;28;20218;-91
2023/04/11 10:15:05;;;;;;;7.17;6.53;;;8.70;88.70;;;;;;4994809;28;20220;-91
2023/04/11 10:17:35;;;;;;;10.13;7.93;;;8.50;88.90;;;;;;4997704;28;20173;-94
2023/04/11 10:20:01;;;;;;;10.23;7.03;;;8.30;90.00;;;;;;5005942;28;20213;-92
2023/04/11 10:22:45;;;;;;;6.90;6.40;;;8.20;89.70;;;;;;5003327;28;20194;-93
2023/04/11 10:25:19;;;;;;;9.47;6.77;;;8.20;90.10;;;;;;4995970;28;20652;-92
2023/04/11 10:27:52;;;;;;;9.77;7.40;;;8.10;90.00;;;;;;4994721;28;20166;-92
2023/04/11 10:30:38;;;;;;;6.80;6.20;;;8.10;90.00;;;;;;4994522;28;20210;-91
2023/04/11 10:33:16;;;;;;;6.93;6.37;;;8.00;90.10;;;;;;4993878;28;20702;-89
2023/04/11 10:36:02;;;;;;;6.87;6.27;;;7.90;89.90;;;;;;4994099;28;20262;-88
2023/04/11 10:38:40;;;;;;;6.37;5.87;;;7.70;89.20;;;;;;4995255;28;20644;-87
2023/04/11 10:41:27;;;;;;;7.50;5.73;;;7.70;88.80;;;;;;4994194;28;20288;-90
2023/04/11 10:44:23;;;;;;;6.23;5.67;;;7.90;89.00;;;;;;4994741;28;20224;-91
2023/04/11 10:46:54;;;;;;;11.03;6.10;;;7.80;88.30;;;;;;4993917;28;20302;-91
2023/04/11 10:49:37;;;;;;;7.17;5.63;;;7.80;88.20;;;;;;4994091;28;20174;-92
2023/04/11 10:52:20;;;;;;;9.53;6.27;;;7.70;87.60;;;;;;4994949;28;20676;-90
2023/04/11 10:54:47;;;;;;;8.53;5.87;;;7.70;87.20;;;;;;4994838;28;20209;-90
2023/04/11 10:57:13;;;;;;;6.57;5.90;;;7.70;87.70;;;;;;4995115;28;20209;-90
2023/04/11 10:59:39;;;;;;;8.87;6.07;;;7.70;87.60;;;;;;4994974;28;20214;-89
2023/04/11 11:02:04;;;;;;;7.27;6.23;;;7.70;87.60;;;;;;4993332;28;20300;-90
2023/04/11 11:04:31;;;;;;;6.90;6.30;;;7.90;87.80;;;;;;4994979;28;20166;-91
2023/04/11 11:06:57;;;;;;;6.47;5.87;;;8.00;88.10;;;;;;4994979;28;20174;-91
2023/04/11 11:09:23;;;;;;;6.60;6.10;;;8.10;87.70;;;;;;4994722;28;20221;-89
2023/04/11 11:12:09;;;;;;;6.47;6.07;;;8.10;87.60;;;;;;4994426;28;20170;-89
2023/04/11 11:14:39;;;;;;;6.73;6.13;;;8.10;86.50;;;;;;4994873;28;20170;-91
2023/04/11 11:17:05;;;;;;;5.90;5.60;;;8.20;86.70;;;;;;4994550;28;20290;-91
2023/04/11 11:19:31;;;;;;;6.57;6.00;;;8.10;86.50;;;;;;4993129;28;20185;-90
2023/04/11 11:22:02;;;;;;;6.13;5.73;;;8.10;86.30;;;;;;4993028;28;20708;-91
2023/04/11 11:24:28;;;;;;;6.83;5.90;;;8.20;86.80;;;;;;4994993;28;20241;-90
2023/04/11 11:26:55;;;;;;;6.67;6.03;;;8.10;87.10;;;;;;4995155;28;20171;-92
2023/04/11 11:29:31;;;;;;;7.33;6.03;;;8.00;87.20;;;;;;4996653;28;20198;-92
2023/04/11 11:31:56;;;;;;;6.83;5.80;;;7.90;87.70;;;;;;4994553;28;20217;-92
2023/04/11 11:34:32;;;;;;;6.37;5.67;;;7.90;88.10;;;;;;4993662;28;20653;-91
2023/04/11 11:37:00;;;;;;;6.53;5.93;;;7.80;87.90;;;;;;4996555;28;20265;-92
2023/04/11 11:39:28;;;;;;;5.40;5.10;;;7.90;88.60;;;;;;4993291;28;20198;-92
2023/04/11 11:41:54;;;;;;;6.00;5.60;;;8.00;87.90;;;;;;4992669;28;20208;-91
2023/04/11 11:44:25;;;;;;;6.20;5.80;;;8.30;87.60;;;;;;4994342;28;20607;-91
2023/04/11 11:47:16;;;;;;;6.57;6.07;;;8.50;86.90;;;;;;4998546;28;20198;-92
2023/04/11 11:49:46;;;;;;;6.83;6.37;;;8.40;86.00;;;;;;4994586;28;20155;-90
2023/04/11 11:52:30;;;;;;;6.50;6.10;;;8.30;84.70;;;;;;4992831;28;20318;-91
2023/04/11 11:54:56;;;;;;;9.13;7.73;;;8.30;84.90;;;;;;4993230;28;20165;-91
2023/04/11 11:57:21;;;;;;;7.40;6.70;;;8.30;84.40;;;;;;4992623;28;20178;-91
2023/04/11 11:59:59;;;;;;;6.10;5.70;;;8.20;84.50;;;;;;4992581;28;20178;-91
2023/04/11 12:02:26;;;;;;;6.17;5.57;;;8.30;85.30;;;;;;4992881;28;20202;-90
2023/04/11 12:05:04;;;;;;;6.50;5.90;;;8.20;85.20;;;;;;4993071;28;20188;-91
2023/04/11 12:07:33;;;;;;;6.70;6.17;;;8.20;86.10;;;;;;4993948;28;20650;-92
2023/04/11 12:10:01;;;;;;;6.67;6.10;;;8.20;86.40;;;;;;4992576;28;20184;-90
2023/04/11 12:12:40;;;;;;;7.00;6.40;;;8.00;86.80;;;;;;4993697;28;20750;-90
2023/04/11 12:15:16;;;;;;;5.97;5.47;;;8.10;87.90;;;;;;4994101;28;20216;-90
2023/04/11 12:17:46;;;;;;;6.40;5.83;;;8.20;88.30;;;;;;4992674;28;20178;-91
2023/04/11 12:20:14;;;;;;;6.97;6.37;;;8.40;89.40;;;;;;4993987;28;20640;-90
2023/04/11 12:22:40;;;;;;;5.93;5.43;;;8.70;89.90;;;;;;4994107;28;20598;-90
2023/04/11 12:25:13;;;;;;;7.67;6.03;;;9.10;89.80;;;;;;4993711;28;20170;-89
2023/04/11 12:27:41;;;;;;;7.13;6.53;;;8.90;88.70;;;;;;4993972;28;20174;-90
2023/04/11 12:30:08;;;;;;;6.90;6.33;;;9.10;88.00;;;;;;4993587;28;20181;-92
2023/04/11 12:32:34;;;;;;;9.53;6.80;;;9.30;87.40;;;;;;4993643;28;20317;-91
2023/04/11 12:35:00;;;;;;;7.00;6.40;;;9.10;87.10;;;;;;4993567;28;20221;-90
2023/04/11 12:37:26;;;;;;;11.43;7.67;;;9.20;86.50;;;;;;4992648;28;20261;-90
2023/04/11 12:39:52;;;;;;;9.90;7.67;;;9.20;84.90;;;;;;4993583;28;20321;-90
2023/04/11 12:42:17;;;;;;;10.27;7.70;;;9.50;85.60;;;;;;4992343;28;20668;-91
2023/04/11 12:44:43;;;;;;;9.57;8.50;;;9.70;84.90;;;;;;4994265;28;20221;-90
2023/04/11 12:47:09;;;;;;;10.63;8.93;;;9.70;83.60;;;;;;4993428;28;20202;-90
2023/04/11 12:49:35;;;;;;;9.03;8.07;;;9.70;83.70;;;;;;4993488;28;20174;-91
2023/04/11 12:52:01;;;;;;;12.77;9.00;;;9.50;82.40;;;;;;4992322;28;20264;-92
2023/04/11 12:54:27;;;;;;;12.07;9.57;;;9.50;82.60;;;;;;4994001;28;20606;-91
2023/04/11 12:56:52;;;;;;;19.40;9.47;;;9.50;81.80;;;;;;4993546;28;20182;-91